sensor_id;sensor_type;location;lat;lon;timestamp;P1;durP1;ratioP1;P2;durP2;ratioP2
59147;SDS011;44930;52.878;6.168;2023-09-19T00:00:37;10.20;;;1.90;;
59147;SDS011;44930;52.878;6.168;2023-09-19T00:03:03;7.78;;;2.20;;
59147;SDS011;44930;52.878;6.168;2023-09-19T00:05:33;17.70;;;3.28;;
59147;SDS011;44930;52.878;6.168;2023-09-19T00:08:00;8.32;;;1.90;;
59147;SDS011;44930;52.878;6.168;2023-09-19T00:10:27;7.00;;;1.85;;
59147;SDS011;44930;52.878;6.168;2023-09-19T00:12:56;11.68;;;1.98;;
59147;SDS011;44930;52.878;6.168;2023-09-19T00:15:24;8.38;;;1.80;;
59147;SDS011;44930;52.878;6.168;2023-09-19T00:17:51;10.70;;;3.08;;
59147;SDS011;44930;52.878;6.168;2023-09-19T00:20:20;7.88;;;1.77;;
59147;SDS011;44930;52.878;6.168;2023-09-19T00:22:47;11.75;;;2.13;;
59147;SDS011;44930;52.878;6.168;2023-09-19T00:25:14;11.25;;;2.92;;
59147;SDS011;44930;52.878;6.168;2023-09-19T00:27:40;9.40;;;2.78;;
59147;SDS011;44930;52.878;6.168;2023-09-19T00:30:10;11.23;;;2.03;;
59147;SDS011;44930;52.878;6.168;2023-09-19T00:32:41;10.05;;;1.65;;
59147;SDS011;44930;52.878;6.168;2023-09-19T00:35:07;9.60;;;2.20;;
59147;SDS011;44930;52.878;6.168;2023-09-19T00:37:34;11.57;;;2.22;;
59147;SDS011;44930;52.878;6.168;2023-09-19T00:40:00;7.25;;;2.03;;
59147;SDS011;44930;52.878;6.168;2023-09-19T00:42:27;14.15;;;2.45;;
59147;SDS011;44930;52.878;6.168;2023-09-19T00:44:53;7.05;;;1.98;;
59147;SDS011;44930;52.878;6.168;2023-09-19T00:47:19;13.77;;;3.28;;
59147;SDS011;44930;52.878;6.168;2023-09-19T00:49:45;9.43;;;2.40;;
59147;SDS011;44930;52.878;6.168;2023-09-19T00:52:14;9.90;;;2.10;;
59147;SDS011;44930;52.878;6.168;2023-09-19T00:54:41;8.32;;;1.98;;
59147;SDS011;44930;52.878;6.168;2023-09-19T00:57:06;8.02;;;2.05;;
59147;SDS011;44930;52.878;6.168;2023-09-19T00:59:33;6.68;;;1.80;;
59147;SDS011;44930;52.878;6.168;2023-09-19T01:02:00;9.25;;;2.35;;
59147;SDS011;44930;52.878;6.168;2023-09-19T01:04:27;12.48;;;3.40;;
59147;SDS011;44930;52.878;6.168;2023-09-19T01:06:53;10.05;;;2.10;;
59147;SDS011;44930;52.878;6.168;2023-09-19T01:09:19;11.38;;;3.10;;
59147;SDS011;44930;52.878;6.168;2023-09-19T01:11:47;12.10;;;2.08;;
59147;SDS011;44930;52.878;6.168;2023-09-19T01:22:21;7.88;;;1.92;;
59147;SDS011;44930;52.878;6.168;2023-09-19T01:31:01;13.65;;;4.22;;
59147;SDS011;44930;52.878;6.168;2023-09-19T01:33:28;8.32;;;2.10;;
59147;SDS011;44930;52.878;6.168;2023-09-19T01:36:16;8.38;;;2.10;;
59147;SDS011;44930;52.878;6.168;2023-09-19T01:38:41;12.75;;;2.58;;
59147;SDS011;44930;52.878;6.168;2023-09-19T01:41:09;8.02;;;2.40;;
59147;SDS011;44930;52.878;6.168;2023-09-19T01:43:41;15.45;;;2.08;;
59147;SDS011;44930;52.878;6.168;2023-09-19T01:51:53;9.70;;;1.70;;
59147;SDS011;44930;52.878;6.168;2023-09-19T01:54:30;6.97;;;2.05;;
59147;SDS011;44930;52.878;6.168;2023-09-19T01:57:17;10.35;;;2.22;;
59147;SDS011;44930;52.878;6.168;2023-09-19T01:59:50;10.68;;;1.90;;
59147;SDS011;44930;52.878;6.168;2023-09-19T02:04:48;9.98;;;2.13;;
59147;SDS011;44930;52.878;6.168;2023-09-19T02:07:15;11.13;;;4.22;;
59147;SDS011;44930;52.878;6.168;2023-09-19T02:09:41;8.57;;;2.65;;
59147;SDS011;44930;52.878;6.168;2023-09-19T02:12:08;5.15;;;2.28;;
59147;SDS011;44930;52.878;6.168;2023-09-19T02:14:34;16.77;;;3.72;;
59147;SDS011;44930;52.878;6.168;2023-09-19T02:17:01;10.27;;;2.20;;
59147;SDS011;44930;52.878;6.168;2023-09-19T02:19:30;7.47;;;1.98;;
59147;SDS011;44930;52.878;6.168;2023-09-19T02:21:58;11.15;;;2.00;;
59147;SDS011;44930;52.878;6.168;2023-09-19T02:24:24;7.07;;;1.63;;
59147;SDS011;44930;52.878;6.168;2023-09-19T02:26:51;13.35;;;2.25;;
59147;SDS011;44930;52.878;6.168;2023-09-19T02:29:17;10.05;;;2.33;;
59147;SDS011;44930;52.878;6.168;2023-09-19T02:31:43;7.60;;;2.00;;
59147;SDS011;44930;52.878;6.168;2023-09-19T02:34:08;11.65;;;2.15;;
59147;SDS011;44930;52.878;6.168;2023-09-19T02:36:34;10.98;;;2.20;;
59147;SDS011;44930;52.878;6.168;2023-09-19T02:39:00;10.18;;;3.15;;
59147;SDS011;44930;52.878;6.168;2023-09-19T02:41:26;10.40;;;2.53;;
59147;SDS011;44930;52.878;6.168;2023-09-19T02:43:54;12.85;;;2.42;;
59147;SDS011;44930;52.878;6.168;2023-09-19T02:46:20;8.02;;;2.50;;
59147;SDS011;44930;52.878;6.168;2023-09-19T02:48:46;10.35;;;2.20;;
59147;SDS011;44930;52.878;6.168;2023-09-19T02:51:12;8.75;;;2.20;;
59147;SDS011;44930;52.878;6.168;2023-09-19T02:53:38;10.95;;;2.50;;
59147;SDS011;44930;52.878;6.168;2023-09-19T02:56:04;10.00;;;2.00;;
59147;SDS011;44930;52.878;6.168;2023-09-19T02:58:30;13.07;;;2.17;;
59147;SDS011;44930;52.878;6.168;2023-09-19T03:01:07;10.75;;;2.65;;
59147;SDS011;44930;52.878;6.168;2023-09-19T03:03:39;10.52;;;2.30;;
59147;SDS011;44930;52.878;6.168;2023-09-19T03:06:06;9.30;;;2.05;;
59147;SDS011;44930;52.878;6.168;2023-09-19T03:08:33;9.00;;;2.20;;
59147;SDS011;44930;52.878;6.168;2023-09-19T03:11:03;11.43;;;2.40;;
59147;SDS011;44930;52.878;6.168;2023-09-19T03:13:28;11.80;;;2.30;;
59147;SDS011;44930;52.878;6.168;2023-09-19T03:15:56;8.70;;;2.00;;
59147;SDS011;44930;52.878;6.168;2023-09-19T03:18:23;12.00;;;2.92;;
59147;SDS011;44930;52.878;6.168;2023-09-19T03:20:54;10.18;;;2.00;;
59147;SDS011;44930;52.878;6.168;2023-09-19T03:23:26;9.88;;;2.05;;
59147;SDS011;44930;52.878;6.168;2023-09-19T03:25:52;9.80;;;2.47;;
59147;SDS011;44930;52.878;6.168;2023-09-19T03:28:18;8.43;;;1.98;;
59147;SDS011;44930;52.878;6.168;2023-09-19T03:30:45;10.60;;;1.98;;
59147;SDS011;44930;52.878;6.168;2023-09-19T03:33:11;9.00;;;1.85;;
59147;SDS011;44930;52.878;6.168;2023-09-19T03:35:37;10.55;;;2.10;;
59147;SDS011;44930;52.878;6.168;2023-09-19T03:38:04;9.48;;;2.15;;
59147;SDS011;44930;52.878;6.168;2023-09-19T03:40:30;10.50;;;2.10;;
59147;SDS011;44930;52.878;6.168;2023-09-19T03:42:56;12.30;;;2.63;;
59147;SDS011;44930;52.878;6.168;2023-09-19T03:45:21;11.55;;;3.10;;
59147;SDS011;44930;52.878;6.168;2023-09-19T03:47:47;12.85;;;3.03;;
59147;SDS011;44930;52.878;6.168;2023-09-19T03:50:12;13.20;;;2.53;;
59147;SDS011;44930;52.878;6.168;2023-09-19T03:52:42;9.95;;;2.20;;
59147;SDS011;44930;52.878;6.168;2023-09-19T03:55:11;8.55;;;2.20;;
59147;SDS011;44930;52.878;6.168;2023-09-19T03:57:36;9.93;;;2.03;;
59147;SDS011;44930;52.878;6.168;2023-09-19T04:00:03;12.98;;;2.00;;
59147;SDS011;44930;52.878;6.168;2023-09-19T04:02:36;7.88;;;1.83;;
59147;SDS011;44930;52.878;6.168;2023-09-19T04:05:03;10.43;;;2.30;;
59147;SDS011;44930;52.878;6.168;2023-09-19T04:07:28;11.65;;;1.92;;
59147;SDS011;44930;52.878;6.168;2023-09-19T04:09:55;14.60;;;2.95;;
59147;SDS011;44930;52.878;6.168;2023-09-19T04:12:20;7.95;;;1.83;;
59147;SDS011;44930;52.878;6.168;2023-09-19T04:14:46;10.02;;;2.33;;
59147;SDS011;44930;52.878;6.168;2023-09-19T04:17:12;11.20;;;2.80;;
59147;SDS011;44930;52.878;6.168;2023-09-19T04:19:37;11.50;;;2.67;;
59147;SDS011;44930;52.878;6.168;2023-09-19T04:22:03;14.65;;;2.47;;
59147;SDS011;44930;52.878;6.168;2023-09-19T04:24:29;10.30;;;2.58;;
59147;SDS011;44930;52.878;6.168;2023-09-19T04:26:55;10.52;;;2.58;;
59147;SDS011;44930;52.878;6.168;2023-09-19T04:29:22;14.07;;;3.30;;
59147;SDS011;44930;52.878;6.168;2023-09-19T04:31:48;15.93;;;2.88;;
59147;SDS011;44930;52.878;6.168;2023-09-19T04:34:13;13.60;;;2.55;;
59147;SDS011;44930;52.878;6.168;2023-09-19T04:36:42;10.50;;;2.33;;
59147;SDS011;44930;52.878;6.168;2023-09-19T04:39:08;11.63;;;2.35;;
59147;SDS011;44930;52.878;6.168;2023-09-19T04:41:35;11.38;;;2.30;;
59147;SDS011;44930;52.878;6.168;2023-09-19T04:44:03;14.80;;;3.25;;
59147;SDS011;44930;52.878;6.168;2023-09-19T04:46:30;9.80;;;2.55;;
59147;SDS011;44930;52.878;6.168;2023-09-19T04:48:55;12.43;;;2.75;;
59147;SDS011;44930;52.878;6.168;2023-09-19T04:51:21;11.15;;;2.88;;
59147;SDS011;44930;52.878;6.168;2023-09-19T04:53:47;13.88;;;2.20;;
59147;SDS011;44930;52.878;6.168;2023-09-19T04:56:13;9.80;;;2.30;;
59147;SDS011;44930;52.878;6.168;2023-09-19T04:58:38;15.05;;;2.78;;
59147;SDS011;44930;52.878;6.168;2023-09-19T05:01:04;13.68;;;2.85;;
59147;SDS011;44930;52.878;6.168;2023-09-19T05:03:30;8.63;;;1.92;;
59147;SDS011;44930;52.878;6.168;2023-09-19T05:05:55;11.38;;;2.78;;
59147;SDS011;44930;52.878;6.168;2023-09-19T05:08:21;14.43;;;2.83;;
59147;SDS011;44930;52.878;6.168;2023-09-19T05:10:47;10.65;;;2.22;;
59147;SDS011;44930;52.878;6.168;2023-09-19T05:13:14;10.27;;;2.45;;
59147;SDS011;44930;52.878;6.168;2023-09-19T05:15:40;15.60;;;3.70;;
59147;SDS011;44930;52.878;6.168;2023-09-19T05:18:05;13.40;;;2.67;;
59147;SDS011;44930;52.878;6.168;2023-09-19T05:20:31;10.32;;;2.25;;
59147;SDS011;44930;52.878;6.168;2023-09-19T05:23:03;11.13;;;2.63;;
59147;SDS011;44930;52.878;6.168;2023-09-19T05:25:32;12.32;;;2.78;;
59147;SDS011;44930;52.878;6.168;2023-09-19T05:28:02;12.73;;;3.20;;
59147;SDS011;44930;52.878;6.168;2023-09-19T05:30:30;12.02;;;2.55;;
59147;SDS011;44930;52.878;6.168;2023-09-19T05:32:56;11.88;;;2.60;;
59147;SDS011;44930;52.878;6.168;2023-09-19T05:35:23;11.32;;;2.47;;
59147;SDS011;44930;52.878;6.168;2023-09-19T05:37:52;10.60;;;2.22;;
59147;SDS011;44930;52.878;6.168;2023-09-19T05:40:18;11.93;;;3.10;;
59147;SDS011;44930;52.878;6.168;2023-09-19T05:42:44;15.23;;;2.58;;
59147;SDS011;44930;52.878;6.168;2023-09-19T05:45:10;11.90;;;2.70;;
59147;SDS011;44930;52.878;6.168;2023-09-19T05:47:37;15.02;;;2.92;;
59147;SDS011;44930;52.878;6.168;2023-09-19T05:50:10;12.68;;;3.83;;
59147;SDS011;44930;52.878;6.168;2023-09-19T05:52:37;12.13;;;3.55;;
59147;SDS011;44930;52.878;6.168;2023-09-19T05:55:06;12.45;;;2.10;;
59147;SDS011;44930;52.878;6.168;2023-09-19T05:57:35;13.77;;;2.20;;
59147;SDS011;44930;52.878;6.168;2023-09-19T06:00:02;13.90;;;3.10;;
59147;SDS011;44930;52.878;6.168;2023-09-19T06:02:33;14.80;;;3.08;;
59147;SDS011;44930;52.878;6.168;2023-09-19T06:05:00;10.60;;;2.42;;
59147;SDS011;44930;52.878;6.168;2023-09-19T06:07:26;15.02;;;2.08;;
59147;SDS011;44930;52.878;6.168;2023-09-19T06:10:01;14.47;;;2.63;;
59147;SDS011;44930;52.878;6.168;2023-09-19T06:12:28;12.00;;;2.50;;
59147;SDS011;44930;52.878;6.168;2023-09-19T06:14:55;16.98;;;3.10;;
59147;SDS011;44930;52.878;6.168;2023-09-19T06:17:21;17.15;;;2.72;;
59147;SDS011;44930;52.878;6.168;2023-09-19T06:19:47;9.38;;;2.38;;
59147;SDS011;44930;52.878;6.168;2023-09-19T06:22:16;12.38;;;2.78;;
59147;SDS011;44930;52.878;6.168;2023-09-19T06:24:44;10.27;;;3.17;;
59147;SDS011;44930;52.878;6.168;2023-09-19T06:27:12;16.48;;;2.88;;
59147;SDS011;44930;52.878;6.168;2023-09-19T06:29:38;14.55;;;2.97;;
59147;SDS011;44930;52.878;6.168;2023-09-19T06:32:07;13.35;;;3.25;;
59147;SDS011;44930;52.878;6.168;2023-09-19T06:34:34;9.93;;;2.28;;
59147;SDS011;44930;52.878;6.168;2023-09-19T06:36:59;11.65;;;2.70;;
59147;SDS011;44930;52.878;6.168;2023-09-19T06:39:25;13.60;;;3.03;;
59147;SDS011;44930;52.878;6.168;2023-09-19T06:41:51;17.10;;;3.47;;
59147;SDS011;44930;52.878;6.168;2023-09-19T06:44:18;12.80;;;3.83;;
59147;SDS011;44930;52.878;6.168;2023-09-19T06:46:46;12.93;;;2.42;;
59147;SDS011;44930;52.878;6.168;2023-09-19T06:49:15;16.05;;;3.95;;
59147;SDS011;44930;52.878;6.168;2023-09-19T06:51:40;15.57;;;2.83;;
59147;SDS011;44930;52.878;6.168;2023-09-19T06:54:07;12.75;;;2.78;;
59147;SDS011;44930;52.878;6.168;2023-09-19T06:56:32;14.07;;;2.90;;
59147;SDS011;44930;52.878;6.168;2023-09-19T06:58:58;9.52;;;2.45;;
59147;SDS011;44930;52.878;6.168;2023-09-19T07:01:23;14.00;;;2.92;;
59147;SDS011;44930;52.878;6.168;2023-09-19T07:03:50;17.40;;;2.90;;
59147;SDS011;44930;52.878;6.168;2023-09-19T07:06:15;14.93;;;2.63;;
59147;SDS011;44930;52.878;6.168;2023-09-19T07:08:41;12.98;;;3.03;;
59147;SDS011;44930;52.878;6.168;2023-09-19T07:11:08;11.82;;;2.90;;
59147;SDS011;44930;52.878;6.168;2023-09-19T07:13:33;16.40;;;3.53;;
59147;SDS011;44930;52.878;6.168;2023-09-19T07:16:00;13.13;;;2.83;;
59147;SDS011;44930;52.878;6.168;2023-09-19T07:18:26;13.38;;;2.90;;
59147;SDS011;44930;52.878;6.168;2023-09-19T07:20:56;11.10;;;2.60;;
59147;SDS011;44930;52.878;6.168;2023-09-19T07:23:26;13.57;;;2.50;;
59147;SDS011;44930;52.878;6.168;2023-09-19T07:25:51;11.93;;;2.05;;
59147;SDS011;44930;52.878;6.168;2023-09-19T07:28:17;12.65;;;2.75;;
59147;SDS011;44930;52.878;6.168;2023-09-19T07:30:43;10.85;;;3.25;;
59147;SDS011;44930;52.878;6.168;2023-09-19T07:33:09;10.90;;;2.42;;
59147;SDS011;44930;52.878;6.168;2023-09-19T07:35:37;14.57;;;3.03;;
59147;SDS011;44930;52.878;6.168;2023-09-19T07:38:06;18.45;;;3.95;;
59147;SDS011;44930;52.878;6.168;2023-09-19T07:40:32;6.13;;;2.42;;
59147;SDS011;44930;52.878;6.168;2023-09-19T07:42:58;13.73;;;2.90;;
59147;SDS011;44930;52.878;6.168;2023-09-19T07:45:27;12.27;;;2.33;;
59147;SDS011;44930;52.878;6.168;2023-09-19T07:47:56;15.00;;;2.60;;
59147;SDS011;44930;52.878;6.168;2023-09-19T07:50:22;10.40;;;2.88;;
59147;SDS011;44930;52.878;6.168;2023-09-19T07:52:48;9.98;;;2.90;;
59147;SDS011;44930;52.878;6.168;2023-09-19T07:55:18;13.40;;;2.45;;
59147;SDS011;44930;52.878;6.168;2023-09-19T07:57:48;10.13;;;2.83;;
59147;SDS011;44930;52.878;6.168;2023-09-19T08:00:14;13.32;;;3.35;;
59147;SDS011;44930;52.878;6.168;2023-09-19T08:02:40;13.52;;;2.97;;
59147;SDS011;44930;52.878;6.168;2023-09-19T08:05:09;15.25;;;2.97;;
59147;SDS011;44930;52.878;6.168;2023-09-19T08:07:39;15.23;;;2.95;;
59147;SDS011;44930;52.878;6.168;2023-09-19T08:10:06;12.93;;;3.20;;
59147;SDS011;44930;52.878;6.168;2023-09-19T08:12:33;10.70;;;2.80;;
59147;SDS011;44930;52.878;6.168;2023-09-19T08:15:01;15.57;;;3.15;;
59147;SDS011;44930;52.878;6.168;2023-09-19T08:17:27;24.15;;;3.63;;
59147;SDS011;44930;52.878;6.168;2023-09-19T08:19:53;13.25;;;2.90;;
59147;SDS011;44930;52.878;6.168;2023-09-19T08:22:19;20.83;;;4.22;;
59147;SDS011;44930;52.878;6.168;2023-09-19T08:24:46;11.45;;;3.63;;
59147;SDS011;44930;52.878;6.168;2023-09-19T08:27:13;12.25;;;2.95;;
59147;SDS011;44930;52.878;6.168;2023-09-19T08:29:38;15.05;;;3.50;;
59147;SDS011;44930;52.878;6.168;2023-09-19T08:32:04;12.38;;;2.90;;
59147;SDS011;44930;52.878;6.168;2023-09-19T08:34:30;13.32;;;3.35;;
59147;SDS011;44930;52.878;6.168;2023-09-19T08:36:59;10.57;;;2.75;;
59147;SDS011;44930;52.878;6.168;2023-09-19T08:39:25;18.65;;;3.97;;
59147;SDS011;44930;52.878;6.168;2023-09-19T08:41:57;20.35;;;3.90;;
59147;SDS011;44930;52.878;6.168;2023-09-19T08:44:24;15.07;;;3.53;;
59147;SDS011;44930;52.878;6.168;2023-09-19T08:46:50;14.50;;;2.88;;
59147;SDS011;44930;52.878;6.168;2023-09-19T08:49:24;14.10;;;4.32;;
59147;SDS011;44930;52.878;6.168;2023-09-19T08:52:05;12.90;;;2.88;;
59147;SDS011;44930;52.878;6.168;2023-09-19T08:54:41;12.27;;;3.15;;
59147;SDS011;44930;52.878;6.168;2023-09-19T08:57:08;17.45;;;3.35;;
59147;SDS011;44930;52.878;6.168;2023-09-19T08:59:39;9.45;;;2.90;;
59147;SDS011;44930;52.878;6.168;2023-09-19T09:02:10;15.80;;;3.75;;
59147;SDS011;44930;52.878;6.168;2023-09-19T09:04:38;12.27;;;2.85;;
59147;SDS011;44930;52.878;6.168;2023-09-19T09:07:09;14.43;;;3.25;;
59147;SDS011;44930;52.878;6.168;2023-09-19T09:09:36;16.30;;;3.63;;
59147;SDS011;44930;52.878;6.168;2023-09-19T09:12:02;14.98;;;3.22;;
59147;SDS011;44930;52.878;6.168;2023-09-19T09:14:29;15.55;;;3.00;;
59147;SDS011;44930;52.878;6.168;2023-09-19T09:16:55;18.88;;;3.75;;
59147;SDS011;44930;52.878;6.168;2023-09-19T09:19:23;14.55;;;3.65;;
59147;SDS011;44930;52.878;6.168;2023-09-19T09:21:50;19.45;;;3.53;;
59147;SDS011;44930;52.878;6.168;2023-09-19T09:24:26;12.38;;;2.78;;
59147;SDS011;44930;52.878;6.168;2023-09-19T09:26:56;18.92;;;3.20;;
59147;SDS011;44930;52.878;6.168;2023-09-19T09:29:41;18.70;;;3.20;;
59147;SDS011;44930;52.878;6.168;2023-09-19T09:34:53;6.35;;;2.40;;
59147;SDS011;44930;52.878;6.168;2023-09-19T09:37:23;15.23;;;3.17;;
59147;SDS011;44930;52.878;6.168;2023-09-19T09:42:42;11.38;;;3.47;;
59147;SDS011;44930;52.878;6.168;2023-09-19T09:45:15;14.88;;;3.28;;
59147;SDS011;44930;52.878;6.168;2023-09-19T09:48:02;17.88;;;3.25;;
59147;SDS011;44930;52.878;6.168;2023-09-19T09:50:35;14.35;;;2.88;;
59147;SDS011;44930;52.878;6.168;2023-09-19T09:53:25;17.13;;;4.57;;
59147;SDS011;44930;52.878;6.168;2023-09-19T09:56:05;18.38;;;3.72;;
59147;SDS011;44930;52.878;6.168;2023-09-19T09:58:34;12.93;;;3.20;;
59147;SDS011;44930;52.878;6.168;2023-09-19T10:01:01;12.18;;;3.38;;
59147;SDS011;44930;52.878;6.168;2023-09-19T10:03:37;13.88;;;3.17;;
59147;SDS011;44930;52.878;6.168;2023-09-19T10:06:09;14.80;;;3.40;;
59147;SDS011;44930;52.878;6.168;2023-09-19T10:11:30;11.50;;;3.25;;
59147;SDS011;44930;52.878;6.168;2023-09-19T10:13:57;14.20;;;3.42;;
59147;SDS011;44930;52.878;6.168;2023-09-19T10:16:26;19.25;;;3.53;;
59147;SDS011;44930;52.878;6.168;2023-09-19T10:18:57;15.00;;;3.97;;
59147;SDS011;44930;52.878;6.168;2023-09-19T10:21:26;16.65;;;3.50;;
59147;SDS011;44930;52.878;6.168;2023-09-19T10:23:55;13.05;;;3.30;;
59147;SDS011;44930;52.878;6.168;2023-09-19T10:26:26;14.73;;;3.08;;
59147;SDS011;44930;52.878;6.168;2023-09-19T10:28:56;13.88;;;4.57;;
59147;SDS011;44930;52.878;6.168;2023-09-19T10:31:25;17.13;;;4.15;;
59147;SDS011;44930;52.878;6.168;2023-09-19T10:33:53;12.70;;;2.85;;
59147;SDS011;44930;52.878;6.168;2023-09-19T10:36:20;19.95;;;4.43;;
59147;SDS011;44930;52.878;6.168;2023-09-19T10:38:52;15.50;;;3.35;;
59147;SDS011;44930;52.878;6.168;2023-09-19T10:41:22;13.15;;;3.28;;
59147;SDS011;44930;52.878;6.168;2023-09-19T10:43:49;10.70;;;3.33;;
59147;SDS011;44930;52.878;6.168;2023-09-19T10:46:19;12.73;;;3.10;;
59147;SDS011;44930;52.878;6.168;2023-09-19T10:48:45;11.65;;;2.72;;
59147;SDS011;44930;52.878;6.168;2023-09-19T10:51:18;10.90;;;2.60;;
59147;SDS011;44930;52.878;6.168;2023-09-19T10:53:53;12.30;;;3.88;;
59147;SDS011;44930;52.878;6.168;2023-09-19T10:59:15;13.63;;;4.05;;
59147;SDS011;44930;52.878;6.168;2023-09-19T11:04:23;14.05;;;3.20;;
59147;SDS011;44930;52.878;6.168;2023-09-19T11:15:06;14.02;;;3.60;;
59147;SDS011;44930;52.878;6.168;2023-09-19T11:30:43;12.90;;;3.00;;
59147;SDS011;44930;52.878;6.168;2023-09-19T11:39:20;12.50;;;2.80;;
59147;SDS011;44930;52.878;6.168;2023-09-19T11:46:12;16.88;;;3.13;;
59147;SDS011;44930;52.878;6.168;2023-09-19T11:48:41;13.95;;;2.75;;
59147;SDS011;44930;52.878;6.168;2023-09-19T11:51:10;13.68;;;3.28;;
59147;SDS011;44930;52.878;6.168;2023-09-19T11:53:44;14.18;;;3.28;;
59147;SDS011;44930;52.878;6.168;2023-09-19T11:56:13;14.40;;;3.15;;
59147;SDS011;44930;52.878;6.168;2023-09-19T11:58:43;11.95;;;3.00;;
59147;SDS011;44930;52.878;6.168;2023-09-19T12:01:13;12.68;;;3.10;;
59147;SDS011;44930;52.878;6.168;2023-09-19T12:03:45;12.30;;;2.65;;
59147;SDS011;44930;52.878;6.168;2023-09-19T12:06:15;8.38;;;2.35;;
59147;SDS011;44930;52.878;6.168;2023-09-19T12:08:42;15.57;;;2.75;;
59147;SDS011;44930;52.878;6.168;2023-09-19T12:11:12;12.57;;;2.55;;
59147;SDS011;44930;52.878;6.168;2023-09-19T12:13:44;8.40;;;2.03;;
59147;SDS011;44930;52.878;6.168;2023-09-19T12:16:20;11.45;;;2.20;;
59147;SDS011;44930;52.878;6.168;2023-09-19T12:21:24;10.43;;;2.40;;
59147;SDS011;44930;52.878;6.168;2023-09-19T12:23:58;14.90;;;2.85;;
59147;SDS011;44930;52.878;6.168;2023-09-19T12:26:26;7.70;;;2.08;;
59147;SDS011;44930;52.878;6.168;2023-09-19T12:28:54;13.75;;;2.65;;
59147;SDS011;44930;52.878;6.168;2023-09-19T12:31:20;12.65;;;2.22;;
59147;SDS011;44930;52.878;6.168;2023-09-19T12:33:52;13.45;;;2.38;;
59147;SDS011;44930;52.878;6.168;2023-09-19T12:36:22;10.13;;;2.20;;
59147;SDS011;44930;52.878;6.168;2023-09-19T12:38:55;10.50;;;2.25;;
59147;SDS011;44930;52.878;6.168;2023-09-19T12:41:24;9.25;;;2.13;;
59147;SDS011;44930;52.878;6.168;2023-09-19T12:43:51;10.93;;;2.17;;
59147;SDS011;44930;52.878;6.168;2023-09-19T12:46:19;8.55;;;2.13;;
59147;SDS011;44930;52.878;6.168;2023-09-19T12:48:51;12.10;;;2.40;;
59147;SDS011;44930;52.878;6.168;2023-09-19T12:51:47;8.40;;;2.05;;
59147;SDS011;44930;52.878;6.168;2023-09-19T12:54:13;8.90;;;2.05;;
59147;SDS011;44930;52.878;6.168;2023-09-19T12:56:43;8.75;;;2.25;;
59147;SDS011;44930;52.878;6.168;2023-09-19T12:59:09;10.35;;;2.30;;
59147;SDS011;44930;52.878;6.168;2023-09-19T13:01:39;13.35;;;2.58;;
59147;SDS011;44930;52.878;6.168;2023-09-19T13:04:18;13.65;;;2.50;;
59147;SDS011;44930;52.878;6.168;2023-09-19T13:06:45;11.70;;;2.47;;
59147;SDS011;44930;52.878;6.168;2023-09-19T13:09:13;8.93;;;2.30;;
59147;SDS011;44930;52.878;6.168;2023-09-19T13:11:40;9.63;;;2.00;;
59147;SDS011;44930;52.878;6.168;2023-09-19T13:14:18;12.02;;;1.95;;
59147;SDS011;44930;52.878;6.168;2023-09-19T13:25:08;5.60;;;1.67;;
59147;SDS011;44930;52.878;6.168;2023-09-19T13:27:43;8.60;;;1.70;;
59147;SDS011;44930;52.878;6.168;2023-09-19T13:30:19;9.23;;;1.75;;
59147;SDS011;44930;52.878;6.168;2023-09-19T13:32:46;10.20;;;2.83;;
59147;SDS011;44930;52.878;6.168;2023-09-19T13:35:12;7.82;;;1.95;;
59147;SDS011;44930;52.878;6.168;2023-09-19T13:37:39;10.10;;;1.70;;
59147;SDS011;44930;52.878;6.168;2023-09-19T13:40:13;6.13;;;2.30;;
59147;SDS011;44930;52.878;6.168;2023-09-19T13:42:40;6.45;;;1.73;;
59147;SDS011;44930;52.878;6.168;2023-09-19T13:45:07;7.68;;;2.45;;
59147;SDS011;44930;52.878;6.168;2023-09-19T13:47:36;5.55;;;1.50;;
59147;SDS011;44930;52.878;6.168;2023-09-19T13:50:03;14.48;;;2.13;;
59147;SDS011;44930;52.878;6.168;2023-09-19T13:52:30;7.75;;;2.42;;
59147;SDS011;44930;52.878;6.168;2023-09-19T13:54:56;7.97;;;1.58;;
59147;SDS011;44930;52.878;6.168;2023-09-19T13:57:23;3.92;;;1.30;;
59147;SDS011;44930;52.878;6.168;2023-09-19T13:59:51;6.85;;;1.50;;
59147;SDS011;44930;52.878;6.168;2023-09-19T14:02:17;5.38;;;1.48;;
59147;SDS011;44930;52.878;6.168;2023-09-19T14:04:43;6.38;;;1.40;;
59147;SDS011;44930;52.878;6.168;2023-09-19T14:07:09;9.30;;;1.58;;
59147;SDS011;44930;52.878;6.168;2023-09-19T14:09:36;7.75;;;1.55;;
59147;SDS011;44930;52.878;6.168;2023-09-19T14:12:02;9.50;;;2.42;;
59147;SDS011;44930;52.878;6.168;2023-09-19T14:14:28;4.43;;;2.03;;
59147;SDS011;44930;52.878;6.168;2023-09-19T14:16:53;5.47;;;1.33;;
59147;SDS011;44930;52.878;6.168;2023-09-19T14:19:20;6.07;;;1.67;;
59147;SDS011;44930;52.878;6.168;2023-09-19T14:21:45;5.88;;;1.42;;
59147;SDS011;44930;52.878;6.168;2023-09-19T14:24:16;6.70;;;1.52;;
59147;SDS011;44930;52.878;6.168;2023-09-19T14:26:45;5.50;;;1.58;;
59147;SDS011;44930;52.878;6.168;2023-09-19T14:29:10;6.10;;;1.40;;
59147;SDS011;44930;52.878;6.168;2023-09-19T14:31:37;5.75;;;1.35;;
59147;SDS011;44930;52.878;6.168;2023-09-19T14:34:05;4.38;;;1.30;;
59147;SDS011;44930;52.878;6.168;2023-09-19T14:36:31;6.15;;;1.58;;
59147;SDS011;44930;52.878;6.168;2023-09-19T14:38:58;4.80;;;1.40;;
59147;SDS011;44930;52.878;6.168;2023-09-19T14:41:23;6.00;;;1.88;;
59147;SDS011;44930;52.878;6.168;2023-09-19T14:43:50;7.55;;;1.98;;
59147;SDS011;44930;52.878;6.168;2023-09-19T14:46:20;7.13;;;1.55;;
59147;SDS011;44930;52.878;6.168;2023-09-19T14:48:46;4.13;;;1.48;;
59147;SDS011;44930;52.878;6.168;2023-09-19T14:51:12;8.18;;;1.58;;
59147;SDS011;44930;52.878;6.168;2023-09-19T14:53:39;7.43;;;1.20;;
59147;SDS011;44930;52.878;6.168;2023-09-19T14:56:06;7.30;;;1.40;;
59147;SDS011;44930;52.878;6.168;2023-09-19T14:58:33;4.97;;;1.33;;
59147;SDS011;44930;52.878;6.168;2023-09-19T15:01:06;5.82;;;1.55;;
59147;SDS011;44930;52.878;6.168;2023-09-19T15:03:37;6.32;;;1.50;;
59147;SDS011;44930;52.878;6.168;2023-09-19T15:06:05;4.38;;;1.60;;
59147;SDS011;44930;52.878;6.168;2023-09-19T15:08:33;3.53;;;1.52;;
59147;SDS011;44930;52.878;6.168;2023-09-19T15:11:03;7.82;;;1.67;;
59147;SDS011;44930;52.878;6.168;2023-09-19T15:13:32;5.10;;;1.50;;
59147;SDS011;44930;52.878;6.168;2023-09-19T15:16:02;5.95;;;1.85;;
59147;SDS011;44930;52.878;6.168;2023-09-19T15:18:28;7.38;;;1.90;;
59147;SDS011;44930;52.878;6.168;2023-09-19T15:20:55;5.55;;;1.80;;
59147;SDS011;44930;52.878;6.168;2023-09-19T15:23:21;7.43;;;1.52;;
59147;SDS011;44930;52.878;6.168;2023-09-19T15:25:48;7.53;;;1.60;;
59147;SDS011;44930;52.878;6.168;2023-09-19T15:28:14;7.47;;;1.63;;
59147;SDS011;44930;52.878;6.168;2023-09-19T15:30:40;6.90;;;1.85;;
59147;SDS011;44930;52.878;6.168;2023-09-19T15:33:05;4.72;;;1.60;;
59147;SDS011;44930;52.878;6.168;2023-09-19T15:35:31;9.18;;;1.80;;
59147;SDS011;44930;52.878;6.168;2023-09-19T15:37:57;7.68;;;2.00;;
59147;SDS011;44930;52.878;6.168;2023-09-19T15:40:24;6.53;;;1.90;;
59147;SDS011;44930;52.878;6.168;2023-09-19T15:42:50;7.35;;;1.85;;
59147;SDS011;44930;52.878;6.168;2023-09-19T15:45:16;8.18;;;1.60;;
59147;SDS011;44930;52.878;6.168;2023-09-19T15:47:43;9.60;;;2.20;;
59147;SDS011;44930;52.878;6.168;2023-09-19T15:50:09;7.47;;;2.00;;
59147;SDS011;44930;52.878;6.168;2023-09-19T15:52:38;5.47;;;1.92;;
59147;SDS011;44930;52.878;6.168;2023-09-19T15:55:04;6.25;;;2.05;;
59147;SDS011;44930;52.878;6.168;2023-09-19T15:57:31;7.55;;;1.85;;
59147;SDS011;44930;52.878;6.168;2023-09-19T15:59:57;8.30;;;2.38;;
59147;SDS011;44930;52.878;6.168;2023-09-19T16:02:23;7.95;;;1.88;;